Time;durP1;ratioP1;P1;durP2;ratioP2;P2;SDS_P1;SDS_P2;PMS_P1;PMS_P2;Temp;Humidity;BMP_temperature;BMP_pressure;BME280_temperature;BME280_humidity;BME280_pressure;Samples;Min_cycle;Max_cycle;Signal;HPM_P1;HPM_P2
2022/11/29 00:00:00;;;;;;;;;;;;;;;-4.55;82.53;102172.81;6187899;23;20353;-68
2022/11/29 00:02:25;;;;;;;;;;;;;;;-4.54;82.27;102163.84;6175325;23;19920;-68
2022/11/29 00:04:52;;;;;;;;;;;;;;;-4.59;82.13;102172.22;6157505;23;19920;-68
2022/11/29 00:07:18;;;;;;;;;;;;;;;-4.61;82.03;102167.97;6175433;23;20543;-67
2022/11/29 00:09:44;;;;;;;;;;;;;;;-4.67;82.08;102168.44;6187697;23;19920;-67
2022/11/29 00:12:12;;;;;;;;;;;;;;;-4.77;82.21;102161.09;6175895;23;19931;-68
2022/11/29 00:14:39;;;;;;;;;;;;;;;-4.76;82.14;102153.94;6176431;23;19927;-67
2022/11/29 00:17:04;;;;;;;;;;;;;;;-4.76;82.25;102154.81;6174711;23;20345;-67
2022/11/29 00:19:31;;;;;;;;;;;;;;;-4.78;82.39;102156.75;6176751;23;20350;-68
2022/11/29 00:21:58;;;;;;;;;;;;;;;-4.93;82.57;102116.03;6174470;23;19950;-68
2022/11/29 00:24:24;;;;;;;;;;;;;;;-4.65;82.51;102148.66;6178016;23;19920;-69
2022/11/29 00:26:50;;;;;;;;;;;;;;;-4.72;82.37;102147.41;6160348;23;19920;-70
2022/11/29 00:29:16;;;;;;;;;;;;;;;-4.80;82.28;102156.00;6126669;23;19920;-69
2022/11/29 00:31:42;;;;;;;;;;;;;;;-4.80;82.49;102155.16;6149475;23;19931;-68
2022/11/29 00:34:08;;;;;;;;;;;;;;;-4.86;82.27;102143.09;6176029;23;19924;-68
2022/11/29 00:36:34;;;;;;;;;;;;;;;-4.92;82.27;102152.41;6174926;23;19927;-69
2022/11/29 00:39:02;;;;;;;;;;;;;;;-4.88;82.33;102147.72;6151290;23;19920;-68
2022/11/29 00:41:28;;;;;;;;;;;;;;;-4.87;82.04;102142.28;6175326;23;19920;-69
2022/11/29 00:43:53;;;;;;;;;;;;;;;-4.95;81.74;102138.47;6186196;23;19920;-68
2022/11/29 00:46:22;;;;;;;;;;;;;;;-4.89;81.85;102141.53;6152197;23;19947;-68
2022/11/29 00:48:48;;;;;;;;;;;;;;;-4.88;81.69;102145.91;6189289;23;20003;-68
2022/11/29 00:51:14;;;;;;;;;;;;;;;-4.86;81.49;102146.63;6175149;23;19940;-68
2022/11/29 00:53:39;;;;;;;;;;;;;;;-4.89;81.05;102141.53;6183859;23;20344;-68
2022/11/29 00:56:07;;;;;;;;;;;;;;;-4.92;81.13;102144.41;6186088;23;19924;-69
2022/11/29 00:58:34;;;;;;;;;;;;;;;-4.97;80.93;102143.09;6146850;23;19920;-67
2022/11/29 01:00:59;;;;;;;;;;;;;;;-5.10;80.98;102117.31;6174141;23;20015;-67
2022/11/29 01:03:25;;;;;;;;;;;;;;;-5.04;81.02;102140.03;6173849;23;19946;-68
2022/11/29 01:05:51;;;;;;;;;;;;;;;-5.04;81.12;102134.69;6158576;23;20006;-69
2022/11/29 01:08:17;;;;;;;;;;;;;;;-4.99;81.36;102136.03;6146068;23;19924;-68
2022/11/29 01:10:42;;;;;;;;;;;;;;;-5.01;81.36;102137.94;6150329;23;19919;-68
2022/11/29 01:13:09;;;;;;;;;;;;;;;-5.01;81.42;102143.28;6175144;23;19943;-67
2022/11/29 01:15:35;;;;;;;;;;;;;;;-4.97;81.20;102132.41;6149476;23;19979;-67
2022/11/29 01:18:01;;;;;;;;;;;;;;;-4.96;81.04;102134.09;6148654;23;19920;-68
2022/11/29 01:20:27;;;;;;;;;;;;;;;-4.96;81.32;102139.44;6187224;23;20022;-67
2022/11/29 01:22:53;;;;;;;;;;;;;;;-5.02;81.14;102144.25;6198051;23;19920;-67
2022/11/29 01:25:18;;;;;;;;;;;;;;;-5.03;81.39;102137.22;6157650;23;20264;-67
2022/11/29 01:27:44;;;;;;;;;;;;;;;-5.02;81.39;102136.25;6183573;23;19920;-68
2022/11/29 01:30:12;;;;;;;;;;;;;;;-5.02;81.55;102135.41;6182746;23;19963;-68
2022/11/29 01:32:38;;;;;;;;;;;;;;;-5.04;81.64;102137.34;6158001;23;19920;-68
2022/11/29 01:35:04;;;;;;;;;;;;;;;-5.09;81.85;102134.16;6158545;23;20002;-68
2022/11/29 01:37:30;;;;;;;;;;;;;;;-5.16;81.64;102133.75;6183535;23;20006;-67
2022/11/29 01:39:56;;;;;;;;;;;;;;;-5.18;82.26;102128.56;6185302;23;20043;-68
2022/11/29 01:42:21;;;;;;;;;;;;;;;-5.22;81.85;102131.56;6186029;23;20307;-68
2022/11/29 01:45:01;;;;;;;;;;;;;;;-5.30;81.79;102140.13;6152087;23;19920;-68
2022/11/29 01:47:31;;;;;;;;;;;;;;;-5.20;81.97;102137.63;6188167;23;19920;-68
2022/11/29 01:49:57;;;;;;;;;;;;;;;-5.16;81.37;102139.09;6209446;23;19920;-67
2022/11/29 01:52:24;;;;;;;;;;;;;;;-5.37;81.33;102114.88;6206931;23;19920;-68
2022/11/29 01:54:52;;;;;;;;;;;;;;;-5.28;81.64;102147.06;6184586;23;20359;-68
2022/11/29 01:57:19;;;;;;;;;;;;;;;-5.29;81.65;102134.69;6184884;23;20186;-67
2022/11/29 01:59:45;;;;;;;;;;;;;;;-5.32;81.85;102139.38;6177244;23;20433;-68
2022/11/29 02:02:12;;;;;;;;;;;;;;;-5.32;81.70;102145.56;6178340;23;19920;-67
2022/11/29 02:04:40;;;;;;;;;;;;;;;-5.30;81.52;102140.13;6177545;23;20371;-68
2022/11/29 02:07:06;;;;;;;;;;;;;;;-5.35;81.23;102150.28;6120922;23;19970;-67
2022/11/29 02:09:32;;;;;;;;;;;;;;;-5.41;81.12;102147.09;6150947;23;19920;-67
2022/11/29 02:12:04;;;;;;;;;;;;;;;-5.44;81.24;102147.31;6149825;23;19920;-67
2022/11/29 02:14:38;;;;;;;;;;;;;;;-5.50;81.72;102138.91;6176334;23;20008;-68
2022/11/29 02:17:09;;;;;;;;;;;;;;;-5.53;81.73;102141.81;6185286;23;19920;-68
2022/11/29 02:20:16;;;;;;;;;;;;;;;-5.53;81.83;102148.00;6155124;23;20083;-68
2022/11/29 02:22:51;;;;;;;;;;;;;;;-5.50;81.68;102152.25;6172410;23;20385;-68
2022/11/29 02:25:23;;;;;;;;;;;;;;;-5.47;81.52;102155.53;6148826;23;19920;-68
2022/11/29 02:28:06;;;;;;;;;;;;;;;-5.49;81.45;102156.59;6151160;23;20406;-68
2022/11/29 02:30:54;;;;;;;;;;;;;;;-5.57;81.55;102154.50;6151167;23;19942;-68
2022/11/29 02:33:36;;;;;;;;;;;;;;;-5.59;81.31;102157.28;6170273;23;19943;-68
2022/11/29 02:36:10;;;;;;;;;;;;;;;-5.60;81.34;102152.06;6175037;23;19920;-68
2022/11/29 02:38:49;;;;;;;;;;;;;;;-5.72;81.10;102151.97;6176079;23;19955;-68
2022/11/29 02:41:21;;;;;;;;;;;;;;;-5.72;81.78;102149.31;6176150;23;19924;-68
2022/11/29 02:44:06;;;;;;;;;;;;;;;-5.70;81.59;102143.88;6200312;23;19959;-68
2022/11/29 02:46:47;;;;;;;;;;;;;;;-5.73;81.41;102152.94;6185847;23;19943;-68
2022/11/29 02:49:21;;;;;;;;;;;;;;;-5.71;81.45;102152.84;6149999;23;19920;-67
2022/11/29 02:51:52;;;;;;;;;;;;;;;-5.70;81.18;102155.41;6150018;23;19948;-68
2022/11/29 02:54:23;;;;;;;;;;;;;;;-5.68;81.13;102155.28;6176689;23;19927;-68
2022/11/29 02:56:52;;;;;;;;;;;;;;;-5.60;80.81;102158.25;6183685;23;19920;-67
2022/11/29 02:59:27;;;;;;;;;;;;;;;-5.62;80.45;102156.66;6153425;23;19920;-68
2022/11/29 03:01:57;;;;;;;;;;;;;;;-5.66;80.45;102160.50;6177006;23;20006;-68
2022/11/29 03:04:30;;;;;;;;;;;;;;;-5.63;80.61;102166.44;6159396;23;20002;-68
2022/11/29 03:07:02;;;;;;;;;;;;;;;-5.66;80.07;102147.19;6151379;23;20006;-67
2022/11/29 03:09:31;;;;;;;;;;;;;;;-5.55;80.19;102161.44;6160719;23;19926;-68
2022/11/29 03:12:01;;;;;;;;;;;;;;;-5.55;79.63;102160.56;6171750;23;19923;-67
2022/11/29 03:14:32;;;;;;;;;;;;;;;-5.57;79.36;102150.03;6158989;23;19920;-68
2022/11/29 03:16:59;;;;;;;;;;;;;;;-5.55;79.23;102150.75;6149489;23;19920;-67
2022/11/29 03:19:35;;;;;;;;;;;;;;;-5.58;78.42;102153.66;6186922;23;19947;-67
2022/11/29 03:22:08;;;;;;;;;;;;;;;-5.65;78.40;102152.38;6177964;23;19920;-68
2022/11/29 03:24:36;;;;;;;;;;;;;;;-5.71;78.36;102156.34;6188957;23;19920;-68
2022/11/29 03:27:05;;;;;;;;;;;;;;;-5.63;78.26;102152.28;6126956;23;20340;-68
2022/11/29 03:29:32;;;;;;;;;;;;;;;-5.64;77.85;102162.09;6146761;23;19920;-68
2022/11/29 03:32:00;;;;;;;;;;;;;;;-5.64;77.75;102158.56;6127107;23;20050;-68
2022/11/29 03:34:34;;;;;;;;;;;;;;;-5.61;77.72;102153.88;6189438;23;19927;-67
2022/11/29 03:37:05;;;;;;;;;;;;;;;-5.78;77.43;102131.09;6182746;23;19920;-68
2022/11/29 03:39:36;;;;;;;;;;;;;;;-5.68;77.42;102165.09;6173980;23;19930;-67
2022/11/29 03:42:04;;;;;;;;;;;;;;;-5.78;77.57;102146.22;6149505;23;20232;-68
2022/11/29 03:44:33;;;;;;;;;;;;;;;-5.78;77.46;102163.06;6173678;23;19920;-67
2022/11/29 03:47:02;;;;;;;;;;;;;;;-5.81;77.48;102162.44;6178421;23;19966;-67
2022/11/29 03:49:31;;;;;;;;;;;;;;;-5.79;77.81;102160.50;6184893;23;19974;-67
2022/11/29 03:52:01;;;;;;;;;;;;;;;-5.77;77.35;102171.94;6184396;23;19920;-68
2022/11/29 03:54:31;;;;;;;;;;;;;;;-5.74;77.21;102167.22;6148435;23;20007;-68
2022/11/29 03:56:57;;;;;;;;;;;;;;;-5.75;76.71;102175.34;6176703;23;20003;-67
2022/11/29 03:59:28;;;;;;;;;;;;;;;-5.85;76.55;102173.31;6185694;23;19920;-68
2022/11/29 04:02:17;;;;;;;;;;;;;;;-5.87;76.24;102174.38;6184184;23;20002;-67
2022/11/29 04:05:04;;;;;;;;;;;;;;;-5.88;76.28;102181.53;6152606;23;19928;-70
2022/11/29 04:07:34;;;;;;;;;;;;;;;-5.93;76.17;102178.34;6148436;23;19920;-70
2022/11/29 04:10:13;;;;;;;;;;;;;;;-5.92;76.19;102182.72;6174783;23;19920;-70
2022/11/29 04:12:56;;;;;;;;;;;;;;;-5.89;76.23;102190.50;6184202;23;19920;-70
2022/11/29 04:15:41;;;;;;;;;;;;;;;-5.87;75.90;102191.22;6161548;23;19924;-70
2022/11/29 04:18:21;;;;;;;;;;;;;;;-5.88;75.79;102191.34;6178710;23;20021;-67
2022/11/29 04:21:05;;;;;;;;;;;;;;;-5.90;75.82;102194.13;6151241;23;19943;-67
2022/11/29 04:23:50;;;;;;;;;;;;;;;-5.82;75.98;102200.72;6149459;23;19923;-68
2022/11/29 04:26:37;;;;;;;;;;;;;;;-5.75;75.82;102192.16;6173171;23;19920;-67
2022/11/29 04:29:20;;;;;;;;;;;;;;;-5.72;75.58;102191.94;6174918;23;19920;-67
2022/11/29 04:31:59;;;;;;;;;;;;;;;-5.68;75.54;102189.94;6185980;23;19920;-68
2022/11/29 04:34:41;;;;;;;;;;;;;;;-5.63;75.80;102189.59;6185317;23;20007;-68
2022/11/29 04:37:14;;;;;;;;;;;;;;;-5.62;75.16;102194.84;6176768;23;19944;-67
2022/11/29 04:39:44;;;;;;;;;;;;;;;-5.64;75.45;102191.41;6179470;23;19920;-67
2022/11/29 04:42:25;;;;;;;;;;;;;;;-5.62;75.46;102191.31;6178779;23;20299;-68
2022/11/29 04:45:14;;;;;;;;;;;;;;;-5.65;75.29;102195.03;6171066;23;19927;-68
2022/11/29 04:47:45;;;;;;;;;;;;;;;-5.68;74.81;102194.44;6174271;23;19920;-67
2022/11/29 04:50:21;;;;;;;;;;;;;;;-5.73;74.76;102194.75;6186853;23;19966;-68
2022/11/29 04:52:55;;;;;;;;;;;;;;;-5.86;74.56;102198.28;6150048;23;19943;-67
2022/11/29 04:55:28;;;;;;;;;;;;;;;-5.94;74.98;102203.28;6178241;23;20051;-68
2022/11/29 04:58:00;;;;;;;;;;;;;;;-5.94;74.99;102205.09;6149658;23;19921;-67
2022/11/29 05:00:30;;;;;;;;;;;;;;;-5.91;74.80;102210.22;6185200;23;19951;-68
2022/11/29 05:02:56;;;;;;;;;;;;;;;-5.88;75.06;102218.84;6177025;23;20010;-67
2022/11/29 05:05:28;;;;;;;;;;;;;;;-5.88;74.82;102221.50;6185173;23;19920;-67
2022/11/29 05:08:01;;;;;;;;;;;;;;;-5.90;74.45;102225.22;6171545;23;19974;-67
2022/11/29 05:10:30;;;;;;;;;;;;;;;-5.95;74.68;102228.22;6148918;23;20052;-67
2022/11/29 05:13:02;;;;;;;;;;;;;;;-5.94;74.52;102229.09;6180064;23;19924;-67
2022/11/29 05:15:39;;;;;;;;;;;;;;;-5.97;74.60;102227.47;6155772;23;20011;-67
2022/11/29 05:18:11;;;;;;;;;;;;;;;-5.93;74.79;102236.13;6144949;23;19920;-67
2022/11/29 05:20:40;;;;;;;;;;;;;;;-5.88;74.55;102239.31;6150435;23;20825;-67
2022/11/29 05:23:14;;;;;;;;;;;;;;;-5.87;74.69;102239.22;6146032;23;19924;-67
2022/11/29 05:25:44;;;;;;;;;;;;;;;-5.87;74.67;102241.88;6171440;23;19950;-68
2022/11/29 05:28:15;;;;;;;;;;;;;;;-5.81;74.58;102245.06;6207127;23;19920;-67
2022/11/29 05:31:02;;;;;;;;;;;;;;;-5.81;74.49;102239.72;6148065;23;20012;-67
2022/11/29 05:33:36;;;;;;;;;;;;;;;-5.80;74.66;102239.63;6162665;23;20342;-67
2022/11/29 05:36:08;;;;;;;;;;;;;;;-5.79;74.36;102243.13;6166831;23;20119;-67
2022/11/29 05:38:40;;;;;;;;;;;;;;;-5.93;74.46;102247.63;6178055;23;20422;-67
2022/11/29 05:41:16;;;;;;;;;;;;;;;-6.03;73.95;102250.09;6179274;23;20344;-68
2022/11/29 05:43:53;;;;;;;;;;;;;;;-6.07;74.38;102250.44;6171691;23;20003;-67
2022/11/29 05:46:21;;;;;;;;;;;;;;;-6.07;74.55;102251.25;6147224;23;19920;-67
2022/11/29 05:48:52;;;;;;;;;;;;;;;-6.07;73.91;102248.59;6182296;23;19920;-67
2022/11/29 05:51:20;;;;;;;;;;;;;;;-6.05;74.24;102253.84;6167619;23;20371;-66
2022/11/29 05:53:50;;;;;;;;;;;;;;;-6.05;73.95;102252.00;6172420;23;19928;-67
2022/11/29 05:56:22;;;;;;;;;;;;;;;-6.04;74.25;102256.38;6173436;23;19923;-68
2022/11/29 05:58:51;;;;;;;;;;;;;;;-6.08;74.25;102249.56;6181710;23;19920;-69
2022/11/29 06:01:20;;;;;;;;;;;;;;;-6.13;74.20;102254.38;6172887;23;20233;-68
2022/11/29 06:03:52;;;;;;;;;;;;;;;-6.23;74.63;102253.28;6171943;23;20300;-68
2022/11/29 06:06:24;;;;;;;;;;;;;;;-6.30;74.67;102252.84;6146563;23;20032;-67
2022/11/29 06:08:53;;;;;;;;;;;;;;;-6.37;74.75;102265.69;6145070;23;19920;-66
2022/11/29 06:11:23;;;;;;;;;;;;;;;-6.36;74.90;102270.06;6144809;23;19920;-66
2022/11/29 06:13:59;;;;;;;;;;;;;;;-6.45;74.60;102263.56;6143838;23;19927;-67
2022/11/29 06:16:39;;;;;;;;;;;;;;;-6.48;74.27;102282.41;6114896;23;19920;-67
2022/11/29 06:19:38;;;;;;;;;;;;;;;-6.52;74.09;102277.38;6113671;23;19920;-67
2022/11/29 06:22:15;;;;;;;;;;;;;;;-6.56;74.09;102282.03;6167382;23;19923;-67
2022/11/29 06:24:55;;;;;;;;;;;;;;;-6.56;74.20;102280.25;6200879;23;20489;-67
2022/11/29 06:27:28;;;;;;;;;;;;;;;-6.52;74.38;102286.22;6176539;23;20375;-66
2022/11/29 06:30:01;;;;;;;;;;;;;;;-6.54;74.75;102293.47;6203846;23;20320;-67
2022/11/29 06:32:31;;;;;;;;;;;;;;;-6.57;74.85;102289.19;6149121;23;20323;-67
2022/11/29 06:35:01;;;;;;;;;;;;;;;-6.65;74.97;102296.81;6172423;23;20382;-67
2022/11/29 06:37:32;;;;;;;;;;;;;;;-6.59;75.25;102295.56;6196751;23;19920;-67
2022/11/29 06:39:58;;;;;;;;;;;;;;;-6.54;75.20;102298.78;6173594;23;19920;-67
2022/11/29 06:42:24;;;;;;;;;;;;;;;-6.53;74.81;102303.16;6158343;23;19920;-67
2022/11/29 06:44:50;;;;;;;;;;;;;;;-6.48;74.79;102300.16;6177143;23;19920;-66
2022/11/29 06:47:22;;;;;;;;;;;;;;;-6.42;74.99;102299.78;6176202;23;19924;-67
2022/11/29 06:49:49;;;;;;;;;;;;;;;-6.42;74.65;102300.63;6151584;23;19951;-66
2022/11/29 06:52:21;;;;;;;;;;;;;;;-6.39;74.47;102304.06;6176092;23;19920;-67
2022/11/29 06:54:54;;;;;;;;;;;;;;;-6.39;74.46;102304.06;6151193;23;19920;-66
2022/11/29 06:57:23;;;;;;;;;;;;;;;-6.46;74.55;102309.78;6183319;23;19931;-66
2022/11/29 06:59:57;;;;;;;;;;;;;;;-6.50;74.85;102307.41;6147929;23;19920;-67
2022/11/29 07:02:43;;;;;;;;;;;;;;;-6.57;74.63;102306.94;6185883;23;19920;-67
2022/11/29 07:05:12;;;;;;;;;;;;;;;-6.62;75.02;102299.28;6185240;23;19920;-67
2022/11/29 07:07:40;;;;;;;;;;;;;;;-6.57;75.00;102304.28;6149261;23;19951;-66
2022/11/29 07:10:06;;;;;;;;;;;;;;;-6.57;74.79;102310.47;6178065;23;20049;-67
2022/11/29 07:12:32;;;;;;;;;;;;;;;-6.55;74.89;102311.22;6149637;23;19920;-67
2022/11/29 07:14:58;;;;;;;;;;;;;;;-6.51;74.85;102319.00;6186468;23;19920;-67
2022/11/29 07:17:27;;;;;;;;;;;;;;;-6.50;74.74;102313.59;6160550;23;19924;-66
2022/11/29 07:19:57;;;;;;;;;;;;;;;-6.47;74.06;102308.06;6159320;23;19927;-67
2022/11/29 07:22:40;;;;;;;;;;;;;;;-6.56;73.91;102311.31;6147222;23;20003;-67
2022/11/29 07:25:15;;;;;;;;;;;;;;;-6.50;74.18;102307.41;6177118;23;19978;-67
2022/11/29 07:27:46;;;;;;;;;;;;;;;-6.45;73.95;102306.16;6158177;23;19979;-67
2022/11/29 07:30:13;;;;;;;;;;;;;;;-6.45;73.93;102307.97;6185047;23;19927;-66
2022/11/29 07:32:49;;;;;;;;;;;;;;;-6.40;74.12;102308.53;6185391;23;20344;-66
2022/11/29 07:35:21;;;;;;;;;;;;;;;-6.47;73.89;102313.38;6151271;23;19930;-67
2022/11/29 07:37:56;;;;;;;;;;;;;;;-6.55;73.87;102311.22;6148064;23;19932;-67
2022/11/29 07:40:26;;;;;;;;;;;;;;;-6.62;73.76;102317.94;6187904;23;19920;-67
2022/11/29 07:42:58;;;;;;;;;;;;;;;-6.61;74.08;102311.66;6185844;23;20352;-67
2022/11/29 07:45:26;;;;;;;;;;;;;;;-6.57;74.18;102315.81;6160373;23;19919;-67
2022/11/29 07:47:52;;;;;;;;;;;;;;;-6.52;74.21;102312.84;6147936;23;19920;-67
2022/11/29 07:50:19;;;;;;;;;;;;;;;-6.45;73.97;102311.47;6183130;23;20239;-67
2022/11/29 07:52:46;;;;;;;;;;;;;;;-6.44;73.89;102321.16;6172646;23;19936;-67
2022/11/29 07:55:12;;;;;;;;;;;;;;;-6.42;73.79;102319.25;6149516;23;19920;-67
2022/11/29 07:57:38;;;;;;;;;;;;;;;-6.42;73.67;102313.94;6176986;23;19920;-67
2022/11/29 08:00:04;;;;;;;;;;;;;;;-6.38;73.60;102319.09;6173495;23;20406;-67
2022/11/29 08:02:38;;;;;;;;;;;;;;;-6.27;73.82;102313.88;6175440;23;19928;-67
2022/11/29 08:05:04;;;;;;;;;;;;;;;-6.20;73.36;102317.84;6185844;23;19966;-67
2022/11/29 08:07:32;;;;;;;;;;;;;;;-6.19;73.16;102314.22;6158082;23;19928;-67
2022/11/29 08:09:58;;;;;;;;;;;;;;;-6.29;73.51;102319.31;6187810;23;19934;-67
2022/11/29 08:12:24;;;;;;;;;;;;;;;-6.33;73.86;102319.63;6185544;23;19939;-67
2022/11/29 08:14:50;;;;;;;;;;;;;;;-6.29;74.37;102321.13;6184396;23;19927;-67
2022/11/29 08:17:15;;;;;;;;;;;;;;;-6.20;74.23;102319.66;6183865;23;19920;-67
2022/11/29 08:19:41;;;;;;;;;;;;;;;-6.05;74.34;102320.44;6186591;23;19975;-67
2022/11/29 08:22:07;;;;;;;;;;;;;;;-5.92;74.18;102318.63;6175991;23;19920;-67
2022/11/29 08:24:34;;;;;;;;;;;;;;;-5.94;73.47;102309.84;6187931;23;19920;-67
2022/11/29 08:26:59;;;;;;;;;;;;;;;-6.04;73.49;102319.50;6147909;23;20005;-67
2022/11/29 08:29:25;;;;;;;;;;;;;;;-5.98;73.58;102316.38;6176972;23;19919;-67
2022/11/29 08:31:52;;;;;;;;;;;;;;;-5.95;73.06;102320.63;6150610;23;20355;-67
2022/11/29 08:34:18;;;;;;;;;;;;;;;-5.91;73.15;102317.66;6184761;23;19920;-68
2022/11/29 08:36:44;;;;;;;;;;;;;;;-5.81;72.91;102315.22;6161953;23;19951;-67
2022/11/29 08:39:10;;;;;;;;;;;;;;;-5.78;72.94;102316.81;6151088;23;19920;-67
2022/11/29 08:41:37;;;;;;;;;;;;;;;-5.76;72.83;102309.59;6150933;23;20002;-67
2022/11/29 08:44:03;;;;;;;;;;;;;;;-5.64;72.83;102306.03;6183402;23;19982;-67
2022/11/29 08:47:34;;;;;;;;;;;;;;;-5.62;72.22;102308.63;6146616;23;20307;-67
2022/11/29 08:49:15;;;;;;;;;;;;;;;-5.64;71.84;102306.03;6173762;23;19924;-67
2022/11/29 08:51:40;;;;;;;;;;;;;;;-5.57;71.47;102318.00;6185831;23;20318;-68
2022/11/29 08:54:06;;;;;;;;;;;;;;;-5.52;71.12;102323.03;6174749;23;20470;-68
2022/11/29 08:56:32;;;;;;;;;;;;;;;-5.47;70.78;102323.56;6175265;23;19920;-67
2022/11/29 08:58:59;;;;;;;;;;;;;;;-5.41;70.43;102316.94;6144681;23;20216;-67
2022/11/29 09:01:25;;;;;;;;;;;;;;;-5.15;69.48;102323.09;6185101;23;20727;-68
2022/11/29 09:04:03;;;;;;;;;;;;;;;-5.08;68.73;102323.50;6150413;23;19924;-69
2022/11/29 09:06:30;;;;;;;;;;;;;;;-5.09;68.33;102324.47;6187437;23;20385;-69
2022/11/29 09:08:56;;;;;;;;;;;;;;;-5.03;67.86;102323.19;6149822;23;20119;-70
2022/11/29 09:11:23;;;;;;;;;;;;;;;-5.06;67.85;102323.41;6169804;23;19979;-69
2022/11/29 09:13:50;;;;;;;;;;;;;;;-4.96;67.29;102316.44;6183641;23;19920;-69
2022/11/29 09:16:18;;;;;;;;;;;;;;;-4.91;66.97;102316.09;6150118;23;19920;-69
2022/11/29 09:18:44;;;;;;;;;;;;;;;-4.94;66.85;102317.16;6148761;23;20007;-69
2022/11/29 09:21:11;;;;;;;;;;;;;;;-4.83;66.61;102321.75;6173679;23;19943;-69
2022/11/29 09:23:37;;;;;;;;;;;;;;;-4.75;66.18;102326.53;6183750;23;19978;-69
2022/11/29 09:26:04;;;;;;;;;;;;;;;-4.78;66.46;102324.06;6188150;23;20014;-69
2022/11/29 09:28:30;;;;;;;;;;;;;;;-4.78;65.98;102313.38;6127232;23;20237;-69
2022/11/29 09:31:02;;;;;;;;;;;;;;;-4.63;66.56;102320.28;6146834;23;20360;-69
2022/11/29 09:33:29;;;;;;;;;;;;;;;-4.36;65.91;102316.53;6177118;23;19927;-69
2022/11/29 09:35:56;;;;;;;;;;;;;;;-4.29;65.60;102309.78;6173104;23;20337;-69
2022/11/29 09:38:21;;;;;;;;;;;;;;;-4.26;65.31;102311.34;6160381;23;19946;-70
2022/11/29 09:40:51;;;;;;;;;;;;;;;-4.23;65.06;102315.63;6176629;23;20335;-69
2022/11/29 09:43:23;;;;;;;;;;;;;;;-4.26;65.28;102308.69;6149813;23;19956;-70
2022/11/29 09:45:53;;;;;;;;;;;;;;;-4.38;64.57;102314.94;6174109;23;19927;-69
2022/11/29 09:48:35;;;;;;;;;;;;;;;-4.63;64.68;102284.72;6149644;23;19920;-70
2022/11/29 09:51:07;;;;;;;;;;;;;;;-4.61;65.29;102309.50;6149186;23;19920;-69
2022/11/29 09:53:39;;;;;;;;;;;;;;;-4.62;65.73;102303.28;6183940;23;19920;-69
2022/11/29 09:56:10;;;;;;;;;;;;;;;-4.45;65.76;102301.19;6157642;23;19919;-69
2022/11/29 09:58:40;;;;;;;;;;;;;;;-4.31;65.42;102297.50;6146020;23;19966;-69
2022/11/29 10:01:08;;;;;;;;;;;;;;;-4.30;64.97;102297.38;6144575;23;19920;-70
2022/11/29 10:03:39;;;;;;;;;;;;;;;-4.28;64.55;102297.25;6181695;23;19920;-69
2022/11/29 10:06:07;;;;;;;;;;;;;;;-4.24;64.91;102292.53;6145974;23;19920;-69
2022/11/29 10:08:35;;;;;;;;;;;;;;;-4.36;63.88;102284.47;6146130;23;20359;-70
2022/11/29 10:11:08;;;;;;;;;;;;;;;-4.59;64.21;102297.75;6173211;23;19920;-69
2022/11/29 10:13:34;;;;;;;;;;;;;;;-4.84;64.37;102296.88;6174205;23;19927;-69
2022/11/29 10:16:05;;;;;;;;;;;;;;;-4.94;65.07;102297.66;6172258;23;19920;-69
2022/11/29 10:18:33;;;;;;;;;;;;;;;-5.00;65.65;102291.78;6186017;23;20362;-69
2022/11/29 10:21:03;;;;;;;;;;;;;;;-4.83;66.00;102297.72;6184539;23;20355;-69
2022/11/29 10:23:31;;;;;;;;;;;;;;;-4.69;65.48;102299.38;6128479;23;19988;-69
2022/11/29 10:25:57;;;;;;;;;;;;;;;-4.73;65.29;102296.06;6178077;23;19920;-69
2022/11/29 10:28:25;;;;;;;;;;;;;;;-4.73;65.70;102298.75;6150384;23;20371;-69
2022/11/29 10:30:52;;;;;;;;;;;;;;;-4.70;65.36;102295.00;6178408;23;19927;-69
2022/11/29 10:33:19;;;;;;;;;;;;;;;-4.61;65.57;102294.31;6162579;23;20002;-69
2022/11/29 10:35:47;;;;;;;;;;;;;;;-4.61;65.09;102291.63;6162808;23;19920;-69
2022/11/29 10:38:14;;;;;;;;;;;;;;;-4.61;65.23;102288.97;6176723;23;19928;-69
2022/11/29 10:40:41;;;;;;;;;;;;;;;-4.74;65.65;102291.69;6186852;23;20011;-69
2022/11/29 10:43:07;;;;;;;;;;;;;;;-4.71;65.59;102293.31;6180305;23;19928;-69
2022/11/29 10:45:37;;;;;;;;;;;;;;;-4.66;65.82;102290.31;6150864;23;19920;-70
2022/11/29 10:48:05;;;;;;;;;;;;;;;-4.63;65.73;102292.75;6174030;23;20398;-69
2022/11/29 10:50:32;;;;;;;;;;;;;;;-4.75;65.22;102289.16;6150811;23;19920;-69
2022/11/29 10:53:02;;;;;;;;;;;;;;;-4.87;65.80;102291.75;6185949;23;19927;-69
2022/11/29 10:55:32;;;;;;;;;;;;;;;-4.85;65.93;102294.28;6148989;23;19920;-69
2022/11/29 10:58:09;;;;;;;;;;;;;;;-4.73;65.57;102300.56;6185438;23;20352;-69
2022/11/29 11:00:48;;;;;;;;;;;;;;;-4.68;65.42;102295.75;6184053;23;19996;-69
2022/11/29 11:03:15;;;;;;;;;;;;;;;-4.80;65.54;102299.31;6177189;23;19927;-69
2022/11/29 11:05:41;;;;;;;;;;;;;;;-4.90;65.27;102300.00;6187509;23;19928;-69
2022/11/29 11:08:15;;;;;;;;;;;;;;;-4.96;65.70;102302.25;6183901;23;19924;-69
2022/11/29 11:10:49;;;;;;;;;;;;;;;-5.11;65.92;102299.72;6182935;23;19920;-69
2022/11/29 11:13:19;;;;;;;;;;;;;;;-5.14;66.52;102292.78;6176197;23;19950;-69
2022/11/29 11:15:45;;;;;;;;;;;;;;;-5.17;66.40;102295.69;6127377;23;19920;-69
2022/11/29 11:18:18;;;;;;;;;;;;;;;-5.05;66.75;102290.44;6122576;23;19924;-69
2022/11/29 11:20:51;;;;;;;;;;;;;;;-5.08;66.20;102290.63;6174122;23;19927;-69
2022/11/29 11:23:21;;;;;;;;;;;;;;;-5.07;65.60;102298.53;6176040;23;19924;-69
2022/11/29 11:25:54;;;;;;;;;;;;;;;-5.05;65.68;102291.25;6177664;23;19931;-69
2022/11/29 11:28:21;;;;;;;;;;;;;;;-4.93;65.57;102297.53;6157249;23;19920;-69
2022/11/29 11:30:49;;;;;;;;;;;;;;;-4.75;64.98;102294.50;6149141;23;19967;-69
2022/11/29 11:33:18;;;;;;;;;;;;;;;-4.48;64.33;102291.59;6148468;23;19926;-69
2022/11/29 11:35:59;;;;;;;;;;;;;;;-4.26;63.69;102287.31;6150096;23;19920;-69
2022/11/29 11:38:24;;;;;;;;;;;;;;;-4.19;63.00;102290.38;6184076;23;20011;-70
2022/11/29 11:40:59;;;;;;;;;;;;;;;-4.18;62.85;102289.41;6184670;23;19944;-70
2022/11/29 11:43:25;;;;;;;;;;;;;;;-4.19;63.06;102295.72;6150982;23;19920;-69
2022/11/29 11:45:52;;;;;;;;;;;;;;;-4.30;63.46;102288.50;6178239;23;19943;-69
2022/11/29 11:48:18;;;;;;;;;;;;;;;-4.38;63.57;102286.41;6186794;23;20485;-69
2022/11/29 11:50:48;;;;;;;;;;;;;;;-4.51;63.28;102294.50;6187213;23;20320;-69
2022/11/29 11:53:18;;;;;;;;;;;;;;;-4.50;63.59;102300.69;6212745;23;19999;-69
2022/11/29 11:55:51;;;;;;;;;;;;;;;-4.53;63.43;102301.75;6150192;23;19920;-69
2022/11/29 11:58:21;;;;;;;;;;;;;;;-4.49;63.18;102303.25;6175957;23;19924;-69
2022/11/29 12:00:48;;;;;;;;;;;;;;;-4.64;62.97;102301.72;6149761;23;20319;-69
2022/11/29 12:03:22;;;;;;;;;;;;;;;-4.87;63.61;102291.75;6187398;23;19920;-69
2022/11/29 12:05:48;;;;;;;;;;;;;;;-4.91;63.85;102290.28;6160075;23;20335;-69
2022/11/29 12:08:14;;;;;;;;;;;;;;;-4.96;63.98;102292.41;6175053;23;19927;-69
2022/11/29 12:10:40;;;;;;;;;;;;;;;-5.04;64.22;102306.31;6186494;23;19920;-69
2022/11/29 12:13:13;;;;;;;;;;;;;;;-5.16;64.54;102304.50;6159438;23;19952;-69
2022/11/29 12:15:43;;;;;;;;;;;;;;;-5.22;64.88;102303.16;6175221;23;19948;-69
2022/11/29 12:18:11;;;;;;;;;;;;;;;-5.26;65.15;102304.31;6185144;23;19974;-69
2022/11/29 12:20:39;;;;;;;;;;;;;;;-5.21;65.36;102301.34;6183125;23;20036;-69
2022/11/29 12:23:17;;;;;;;;;;;;;;;-4.99;65.39;102305.97;6176071;23;19920;-70
2022/11/29 12:25:46;;;;;;;;;;;;;;;-4.71;64.28;102306.66;6184445;23;19920;-69
2022/11/29 12:28:13;;;;;;;;;;;;;;;-4.93;64.20;102294.84;6148709;23;20360;-69
2022/11/29 12:30:43;;;;;;;;;;;;;;;-5.24;64.77;102309.56;6174589;23;20003;-69
2022/11/29 12:33:21;;;;;;;;;;;;;;;-5.50;65.56;102297.09;6149324;23;19927;-70
2022/11/29 12:36:07;;;;;;;;;;;;;;;-5.73;66.42;102304.88;6150516;23;19924;-69
2022/11/29 12:38:45;;;;;;;;;;;;;;;-5.86;67.00;102306.66;6171431;23;19926;-69
2022/11/29 12:41:16;;;;;;;;;;;;;;;-5.96;67.69;102317.09;6177184;23;19928;-69
2022/11/29 12:43:48;;;;;;;;;;;;;;;-6.12;68.14;102312.00;6100251;23;19920;-69
2022/11/29 12:46:18;;;;;;;;;;;;;;;-6.23;68.78;102312.75;6186511;23;19956;-69
2022/11/29 12:48:51;;;;;;;;;;;;;;;-6.30;69.21;102312.28;6178314;23;20019;-69
2022/11/29 12:51:22;;;;;;;;;;;;;;;-6.34;69.47;102317.91;6127148;23;19939;-69